Latest Coastal Weather Observations for Karratha

IDW60701

Issued at 12:22 am WST Monday 26 January 2015 (issued every 10 minutes, with the page automatically refreshed every 10 minutes)

About coastal observations | Map of coastal stations | Coastal observations for WA | Marine services | Other Formats
Station Details ID: 004083 Name: KARRATHA AERO Lat: -20.71 Lon: 116.77 Height: 5.3 m
Data from the previous 72 hours. | See also: Recent months at Karratha
Date/Time
WST
Temp

°C
Wind Pressure Rain
since 9am
mm
Weather Cloud Vis
km
Sea
Height
m
Swell
Dir
 
Speed
knots
Gust
knots
hPa Trend Height
m
Period
s
Dir
26/12:00am 27.6 NW 13 18 1005.0 - 0.0 - - 9 - - - -
 
Date/Time
WST
Temp

°C
Wind Pressure Rain
since 9am
mm
Weather Cloud Vis
km
Sea
Height
m
Swell
Dir
 
Speed
knots
Gust
knots
hPa Trend Height
m
Period
s
Dir
25/11:30pm 28.0 NW 11 14 1005.3 - 0.0 - - 10 - - - -
25/11:00pm 28.1 NW 11 16 1005.6 - 0.0 - - 9 - - - -
25/10:30pm 28.2 NNW 12 15 1005.6 - 0.0 - - 9 - - - -
25/10:00pm 28.5 NNW 9 11 1006.1 - 0.0 - - 9 - - - -
25/09:30pm 28.9 N 7 10 1006.6 - 0.0 - - 9 - - - -
25/09:00pm 28.7 N 7 8 1007.1 - 0.0 - Mostly clear 9 - - - -
25/08:30pm 28.9 NE 5 6 1007.5 - 0.0 - Partly cloudy 9 - - - -
25/08:00pm 28.9 N 3 4 1007.5 - 0.0 - - 9 - - - -
25/07:30pm 29.0 NNW 7 10 1007.1 - 0.0 - Partly cloudy 9 - - - -
25/07:00pm 29.3 NNW 8 11 1006.6 - 0.0 - - 9 - - - -
25/06:30pm 29.7 NNW 8 11 1006.6 - 0.0 - - 9 - - - -
25/06:00pm 30.1 NNW 9 13 1006.2 - 0.0 - - 9 - - - -
25/05:30pm 30.7 NNW 10 14 1005.8 - 0.0 - Partly cloudy 9 - - - -
25/05:00pm 31.3 NNW 10 14 1005.2 - 0.0 - - 10 - - - -
25/04:30pm 31.4 NNW 13 17 1005.0 - 0.0 - - 9 - - - -
25/04:00pm 31.4 NNW 13 18 1004.8 - 0.0 - - 10 - - - -
25/03:30pm 31.7 NNW 13 17 1005.2 - 0.0 - - 9 - - - -
25/03:00pm 32.8 N 13 18 1005.2 - 0.0 - - 10 - - - -
25/02:30pm 32.8 NNW 13 19 1005.8 - 0.0 - - 9 - - - -
25/02:00pm 32.8 NE 14 17 1006.0 - 0.0 - - 10 - - - -
25/01:30pm 33.5 NE 13 17 1006.2 - 0.0 - - 9 - - - -
25/01:00pm 32.4 NE 17 21 1006.4 - 0.0 - - 10 - - - -
25/12:30pm 31.9 NE 17 21 1006.6 - 0.0 - - 9 - - - -
25/12:00pm 32.1 NE 14 20 1007.0 - 0.0 - - 9 - - - -
25/11:30am 31.9 NE 15 17 1007.1 - 0.0 - - 9 - - - -
25/11:00am 31.9 N 7 11 1006.8 - 0.0 - - 9 - - - -
25/10:30am 32.3 NNW 9 14 1006.5 - 0.0 - - 9 - - - -
25/10:00am 32.0 NW 9 14 1006.4 - 0.0 - - 9 - - - -
25/09:30am 31.3 NW 9 12 1006.2 - 0.0 - - 9 - - - -
25/09:00am 30.8 NW 9 11 1006.2 - 0.0 - - 8 - - - -
25/08:30am 30.3 NNW 8 10 1006.4 - 0.0 - - 8 - - - -
25/08:00am 29.6 NNW 7 9 1006.3 - 0.0 - - 8 - - - -
25/07:30am 29.1 NNW 7 9 1005.9 - 0.0 - - 8 - - - -
25/07:00am 29.1 NW 7 8 1005.4 - 0.0 - - 8 - - - -
25/06:30am 29.0 WNW 7 11 1005.0 - 0.0 - - 8 - - - -
25/06:00am 29.0 NW 8 10 1004.4 - 0.0 - Mostly clear 8 - - - -
25/05:30am 29.2 W 9 10 1004.3 - 0.0 - - 8 - - - -
25/05:00am 29.1 WNW 8 10 1003.8 - 0.0 - - 8 - - - -
25/04:30am 29.2 WNW 10 13 1003.7 - 0.0 - - 8 - - - -
25/04:00am 29.2 WNW 10 14 1003.5 - 0.0 - Partly cloudy 8 - - - -
25/03:30am 29.1 WNW 10 12 1003.4 - 0.0 - - 8 - - - -
25/03:00am 29.1 WNW 10 13 1003.2 - 0.0 - Partly cloudy 8 - - - -
25/02:30am 29.0 WNW 12 15 1003.2 - 0.0 - - 8 - - - -
25/02:00am 29.0 WNW 12 14 1003.2 - 0.0 - - 8 - - - -
25/01:30am 29.2 NW 12 16 1003.3 - 0.0 - - 8 - - - -
25/01:00am 29.1 NW 12 18 1004.1 - 0.0 - Partly cloudy 8 - - - -
25/12:30am 29.2 NW 12 15 1004.5 - 0.0 - - 8 - - - -
25/12:00am 29.5 N 11 14 1004.8 - 0.0 - Cloudy 8 - - - -
 
Date/Time
WST
Temp

°C
Wind Pressure Rain
since 9am
mm
Weather Cloud Vis
km
Sea
Height
m
Swell
Dir
 
Speed
knots
Gust
knots
hPa Trend Height
m
Period
s
Dir
24/11:30pm 30.0 NNW 11 13 1004.9 - 0.0 - - 8 - - - -
24/11:00pm 30.8 NNW 8 10 1005.1 - 0.0 - - 9 - - - -
24/10:30pm 31.4 W 5 7 1005.3 - 0.0 - - 10 - - - -
24/10:00pm 31.6 W 9 11 1005.1 - 0.0 - - 10 - - - -
24/09:30pm 31.7 W 10 14 1004.7 - 0.0 - - 10 - - - -
24/09:00pm 31.7 W 13 16 1004.4 - 0.0 - Mostly clear 10 - - - -
24/08:30pm 31.8 W 14 18 1004.0 - 0.0 - - 10 - - - -
24/08:00pm 31.8 W 15 18 1003.9 - 0.0 - - 10 - - - -
24/07:30pm 32.2 W 15 19 1003.8 - 0.0 - - 10 - - - -
24/07:00pm 32.8 W 16 20 1003.3 - 0.0 - - 10 - - - -
24/06:30pm 34.1 W 14 17 1003.1 - 0.0 - - 10 - - - -
24/06:00pm 35.2 W 13 17 1002.8 - 0.0 - - 10 - - - -
24/05:30pm 35.9 W 15 17 1002.6 - 0.0 - - 10 - - - -
24/05:00pm 36.5 WNW 13 17 1002.4 - 0.0 - - 10 - - - -
24/04:30pm 35.6 WNW 14 18 1002.4 - 0.0 - - 10 - - - -
24/04:00pm 36.2 WNW 17 21 1002.4 - 0.0 - - 10 - - - -
24/03:30pm 38.0 NW 13 17 1002.5 - 0.0 - - 10 - - - -
24/03:00pm 38.1 NW 16 21 1002.6 - 0.0 - - 10 - - - -
24/02:30pm 38.4 NW 15 19 1002.9 - 0.0 - - 10 - - - -
24/02:00pm 37.9 NW 14 16 1003.2 - 0.0 - - 10 - - - -
24/01:30pm 38.4 NW 12 16 1003.5 - 0.0 - - 10 - - - -
24/01:00pm 39.3 NNW 11 14 1003.7 - 0.0 - - 10 - - - -
24/12:30pm 40.0 WNW 9 13 1004.1 - 0.0 - - 10 - - - -
24/12:00pm 40.2 WNW 6 10 1004.5 - 0.0 - - 10 - - - -
24/11:30am 39.1 N 7 10 1005.0 - 0.0 - - 10 - - - -
24/11:00am 39.8 NE 8 11 1005.3 - 0.0 - - 10 - - - -
24/10:30am 38.7 NE 9 11 1005.6 - 0.0 - - 10 - - - -
24/10:00am 37.7 NNE 7 9 1005.9 - 0.0 - - 10 - - - -
24/09:30am 35.7 NW 6 9 1006.2 - 0.0 - - 10 - - - -
24/09:00am 34.2 WNW 5 8 1006.2 - 0.0 - - 10 - - - -
24/08:30am 32.9 WSW 9 12 1006.3 - 0.0 - - 10 - - - -
24/08:00am 33.1 WNW 8 11 1005.3 - 0.0 - - 10 - - - -
24/07:30am 31.5 W 5 7 1005.2 - 0.0 - - 10 - - - -
24/07:00am 31.2 W 8 11 1005.3 - 0.0 - - 10 - - - -
24/06:30am 30.4 NNW 5 8 1005.0 - 0.0 - - 10 - - - -
24/06:00am 30.1 NW 5 7 1004.9 - 0.0 - Mostly clear 10 - - - -
24/05:30am 30.5 NW 5 8 1004.4 - 0.0 - - 10 - - - -
24/05:00am 30.3 NNW 5 7 1003.6 - 0.0 - - 10 - - - -
24/04:30am 31.0 WSW 3 7 1002.9 - 0.0 - - 10 - - - -
24/04:00am 31.0 SW 13 18 1001.8 - 0.0 - - 10 - - - -
24/03:30am 31.0 SW 18 22 1001.9 - 0.0 - - 10 - - - -
24/03:00am 31.0 WSW 15 20 1002.0 - 0.0 - Mostly clear 10 - - - -
24/02:30am 31.0 SW 18 23 1002.3 - 0.0 - - 10 - - - -
24/02:00am 31.1 SW 13 16 1002.6 - 0.0 - - 10 - - - -
24/01:30am 30.8 SW 16 20 1003.0 - 0.0 - - 10 - - - -
24/01:00am 31.1 WSW 16 19 1003.6 - 0.0 - - 10 - - - -
24/12:30am 31.1 W 15 20 1003.9 - 0.0 - - 9 - - - -
24/12:00am 31.1 W 21 26 1004.0 - 0.0 - Mostly clear 9 - - - -
 
Date/Time
WST
Temp

°C
Wind Pressure Rain
since 9am
mm
Weather Cloud Vis
km
Sea
Height
m
Swell
Dir
 
Speed
knots
Gust
knots
hPa Trend Height
m
Period
s
Dir
23/11:30pm 30.9 W 18 24 1004.2 - 0.0 - - 8 - - - -
23/11:00pm 30.9 WNW 15 21 1004.5 - 0.0 - - 8 - - - -
23/10:58pm 30.9 WNW 15 21 1004.5 - 0.0 - - 8 - - - -
23/10:30pm 31.1 NW 8 11 1005.4 - 0.0 - - 8 - - - -
23/10:00pm 31.3 WNW 11 15 1005.1 - 0.0 - - 8 - - - -
23/09:30pm 31.5 W 15 20 1004.0 - 0.0 - - 8 - - - -
23/09:00pm 31.5 W 20 24 1002.8 - 0.0 - - 9 - - - -
23/08:30pm 31.7 W 21 25 1003.0 - 0.0 - - 9 - - - -
23/08:00pm 32.0 WSW 20 24 1003.7 - 0.0 - - 10 - - - -
23/07:55pm 32.0 WSW 20 24 1003.7 - 0.0 - - 10 - - - -
23/07:30pm 31.2 WSW 20 25 1004.6 - 0.0 - - 8 - - - -
23/07:28pm 31.1 WSW 20 25 1004.8 - 0.0 - - 8 - - - -
23/07:00pm 30.7 W 22 27 1003.2 - 0.0 - - 8 - - - -
23/06:30pm 31.0 W 23 29 1002.3 - 0.0 - - 8 - - - -
23/06:00pm 31.0 W 23 29 1001.7 - 0.0 - - 9 - - - -
23/05:30pm 32.0 W 24 28 1001.7 - 0.0 - - 9 - - - -
23/05:00pm 32.5 W 25 32 1001.7 - 0.0 - - 10 - - - -
23/04:30pm 32.6 W 24 29 1001.6 - 0.0 - - 10 - - - -
23/04:00pm 32.8 W 25 29 1001.8 - 0.0 - - 9 - - - -
23/03:30pm 33.8 W 24 29 1001.8 - 0.0 - - 10 - - - -
23/03:00pm 34.1 W 22 27 1002.2 - 0.0 - - 10 - - - -
23/02:30pm 35.0 W 24 28 1002.4 - 0.0 - - 10 - - - -
23/02:00pm 34.7 W 24 30 1002.6 - 0.0 - - 10 - - - -
23/01:30pm 34.8 W 23 27 1002.9 - 0.0 - - 10 - - - -
23/01:00pm 34.8 W 22 25 1003.3 - 0.0 - - 10 - - - -
23/12:30pm 35.6 W 21 24 1003.5 - 0.0 - - 10 - - - -
23/12:00pm 36.1 W 19 22 1004.0 - 0.0 - - 10 - - - -
23/11:30am 36.2 W 19 22 1004.2 - 0.0 - - 10 - - - -
23/11:00am 35.5 W 18 21 1004.6 - 0.0 - - 10 - - - -
23/10:30am 37.0 WNW 14 18 1004.9 - 0.0 - - 10 - - - -
23/10:00am 35.6 WNW 14 16 1005.2 - 0.0 - - 10 - - - -
23/09:30am 35.2 WNW 12 16 1005.5 - 0.0 - - 10 - - - -
23/09:00am 34.4 W 12 15 1005.7 - 0.0 - - 10 - - - -
23/08:30am 32.5 WSW 13 16 1005.6 - 0.0 - - 10 - - - -
23/08:00am 30.7 W 15 19 1005.4 - 0.0 - - 10 - - - -
23/07:30am 29.2 W 16 19 1005.2 - 0.0 - - 10 - - - -
23/07:00am 28.9 W 14 19 1005.0 - 0.0 - - 10 - - - -
23/06:30am 28.5 WSW 15 19 1005.1 - 0.0 - - 10 - - - -
23/06:00am 28.4 WSW 15 19 1004.7 - 0.0 - Mostly clear 10 - - - -
23/05:30am 28.5 WSW 15 19 1004.3 - 0.0 - - 10 - - - -
23/05:00am 28.6 WSW 16 19 1004.2 - 0.0 - - 10 - - - -
23/04:30am 28.7 WSW 15 18 1004.0 - 0.0 - - 10 - - - -
23/04:00am 28.9 WSW 18 22 1003.8 - 0.0 - - 10 - - - -
23/03:30am 29.2 W 17 21 1003.9 - 0.0 - - 10 - - - -
23/03:00am 29.2 WSW 20 25 1003.7 - 0.0 - - 10 - - - -
23/02:30am 29.4 WSW 18 23 1004.4 - 0.0 - - 10 - - - -
23/02:00am 29.5 W 18 22 1004.6 - 0.0 - - 10 - - - -
23/01:30am 29.6 W 15 19 1005.9 - 0.0 - - 10 - - - -
23/01:00am 29.6 W 13 16 1006.4 - 0.0 - - 10 - - - -
23/12:30am 29.5 W 6 8 1007.4 - 0.0 - - 10 - - - -

Other Formats:

Comma delimited format used in spreadsheet applications
http://www.bom.gov.au/fwo/IDW60701/IDW60701.95307.axf

JavaScript Object Notation format (JSON) in row-major order
http://www.bom.gov.au/fwo/IDW60701/IDW60701.95307.json